createdAt,value
2022-11-29T00:00:46.770Z,96.88
2022-11-29T00:01:49.005Z,96.47
2022-11-29T00:02:49.217Z,96.72
2022-11-29T00:03:47.724Z,97.13
2022-11-29T00:04:48.032Z,97.33
2022-11-29T00:05:48.548Z,96.98
2022-11-29T00:06:48.571Z,96.98
2022-11-29T00:07:48.916Z,96.72
2022-11-29T00:08:51.063Z,96.82
2022-11-29T00:09:51.252Z,97.02
2022-11-29T00:10:50.682Z,97.13
2022-11-29T00:11:50.841Z,97.13
2022-11-29T00:12:51.258Z,97.33
2022-11-29T00:13:52.520Z,97.08
2022-11-29T00:14:52.692Z,97.13
2022-11-29T00:15:51.996Z,97.19
2022-11-29T00:16:52.442Z,96.88
2022-11-29T00:17:52.753Z,96.92
2022-11-29T00:18:54.006Z,96.92
2022-11-29T00:19:53.352Z,97.13
2022-11-29T00:20:55.551Z,97.08
2022-11-29T00:21:52.952Z,96.88
2022-11-29T00:22:53.251Z,97.13
2022-11-29T00:23:55.430Z,96.88
2022-11-29T00:24:53.815Z,96.88
2022-11-29T00:25:54.122Z,96.88
2022-11-29T00:26:55.316Z,96.56
2022-11-29T00:27:54.673Z,96.77
2022-11-29T00:28:55.889Z,96.26
2022-11-29T00:29:57.181Z,96.82
2022-11-29T00:30:57.300Z,97.19
2022-11-29T00:31:57.414Z,96.77
2022-11-29T00:32:58.112Z,96.88
2022-11-29T00:33:58.279Z,97.23
2022-11-29T00:34:59.706Z,96.77
2022-11-29T00:35:58.634Z,96.92
2022-11-29T00:36:59.333Z,97.23
2022-11-29T00:37:57.719Z,97.44
2022-11-29T00:38:58.024Z,97.44
2022-11-29T00:39:59.207Z,97.29
2022-11-29T00:41:00.399Z,97.13
2022-11-29T00:42:00.588Z,97.33
2022-11-29T00:43:00.782Z,97.54
2022-11-29T00:44:01.436Z,97.81
2022-11-29T00:45:01.633Z,97.33
2022-11-29T00:46:01.874Z,97.29
2022-11-29T00:47:02.044Z,97.23
2022-11-29T00:48:02.230Z,97.08
2022-11-29T00:49:02.897Z,96.92
2022-11-29T00:50:03.083Z,97.23
2022-11-29T00:51:01.594Z,97.13
2022-11-29T00:52:03.763Z,97.39
2022-11-29T00:53:03.942Z,96.94
2022-11-29T00:54:02.440Z,96.67
2022-11-29T00:55:04.649Z,96.47
2022-11-29T00:56:03.020Z,96.47
2022-11-29T00:57:05.337Z,96.77
2022-11-29T00:58:05.518Z,96.88
2022-11-29T00:59:07.169Z,96.98
2022-11-29T01:00:04.199Z,97.02
2022-11-29T01:01:06.456Z,97.23
2022-11-29T01:02:04.912Z,97.19
2022-11-29T01:03:05.179Z,96.98
2022-11-29T01:04:07.353Z,97.13
2022-11-29T01:05:05.624Z,97.23
2022-11-29T01:06:07.813Z,97.19
2022-11-29T01:07:06.192Z,97.23
2022-11-29T01:08:06.493Z,97.13
2022-11-29T01:09:08.716Z,97.44
2022-11-29T01:10:07.087Z,97.64
2022-11-29T01:11:07.402Z,97.54
2022-11-29T01:12:07.698Z,97.64
2022-11-29T01:13:08.012Z,97.75
2022-11-29T01:14:10.171Z,97.60
2022-11-29T01:15:10.364Z,97.33
2022-11-29T01:16:08.875Z,97.54
2022-11-29T01:17:11.055Z,97.75
2022-11-29T01:18:09.443Z,97.50
2022-11-29T01:19:10.713Z,97.23
2022-11-29T01:20:11.034Z,97.50
2022-11-29T01:21:11.390Z,97.23
2022-11-29T01:22:12.589Z,97.54
2022-11-29T01:23:10.959Z,97.54
2022-11-29T01:24:11.270Z,97.59
2022-11-29T01:25:11.573Z,98.27
2022-11-29T01:26:13.737Z,97.50
2022-11-29T01:27:13.920Z,97.60
2022-11-29T01:28:12.428Z,96.94
2022-11-29T01:29:12.729Z,96.47
2022-11-29T01:30:13.042Z,96.88
2022-11-29T01:31:13.465Z,96.56
2022-11-29T01:32:15.564Z,96.88
2022-11-29T01:33:13.928Z,96.67
2022-11-29T01:34:14.238Z,96.92
2022-11-29T01:35:14.551Z,97.23
2022-11-29T01:36:14.862Z,97.44
2022-11-29T01:37:17.039Z,97.39
2022-11-29T01:38:17.223Z,97.29
2022-11-29T01:39:15.729Z,97.02
2022-11-29T01:40:16.040Z,97.08
2022-11-29T01:41:16.352Z,97.29
2022-11-29T01:42:16.664Z,97.29
2022-11-29T01:43:18.862Z,97.19
2022-11-29T01:44:17.250Z,96.56
2022-11-29T01:45:17.631Z,97.02
2022-11-29T01:46:17.868Z,97.33
2022-11-29T01:47:19.972Z,97.39
2022-11-29T01:48:20.165Z,97.08
2022-11-29T01:49:20.334Z,96.98
2022-11-29T01:50:21.053Z,96.77
2022-11-29T01:51:21.184Z,96.98
2022-11-29T01:52:19.569Z,96.88
2022-11-29T01:53:21.758Z,97.08
2022-11-29T01:54:21.943Z,96.77
2022-11-29T01:55:22.125Z,97.13
2022-11-29T01:56:22.316Z,97.44
2022-11-29T01:57:21.062Z,97.44
2022-11-29T01:58:23.254Z,97.33
2022-11-29T01:59:23.457Z,97.33
2022-11-29T02:00:21.972Z,97.60
2022-11-29T02:01:23.364Z,97.23
2022-11-29T02:02:22.645Z,97.08
2022-11-29T02:03:22.925Z,97.13
2022-11-29T02:04:25.114Z,97.38
2022-11-29T02:05:23.510Z,97.85
2022-11-29T02:06:23.817Z,97.54
2022-11-29T02:07:24.158Z,97.44
2022-11-29T02:08:24.448Z,97.64
2022-11-29T02:09:26.630Z,97.39
2022-11-29T02:10:26.833Z,97.33
2022-11-29T02:11:25.339Z,97.23
2022-11-29T02:12:25.651Z,97.39
2022-11-29T02:13:25.957Z,97.29
2022-11-29T02:14:28.139Z,96.98
2022-11-29T02:15:27.525Z,97.08
2022-11-29T02:16:28.721Z,96.88
2022-11-29T02:17:28.900Z,96.88
2022-11-29T02:18:29.063Z,96.88
2022-11-29T02:19:29.245Z,97.08
2022-11-29T02:20:29.946Z,96.88
2022-11-29T02:21:30.142Z,96.92
2022-11-29T02:22:30.346Z,97.23
2022-11-29T02:23:30.504Z,97.39
2022-11-29T02:24:31.185Z,96.77
2022-11-29T02:25:31.379Z,96.77
2022-11-29T02:26:33.055Z,96.67
2022-11-29T02:27:31.764Z,96.88
2022-11-29T02:28:32.469Z,96.77
2022-11-29T02:29:32.656Z,96.61
2022-11-29T02:30:32.867Z,97.08
2022-11-29T02:31:33.017Z,96.61
2022-11-29T02:32:33.712Z,97.02
2022-11-29T02:33:32.094Z,96.88
2022-11-29T02:34:34.285Z,97.08
2022-11-29T02:35:32.682Z,96.67
2022-11-29T02:36:32.998Z,96.92
2022-11-29T02:37:33.306Z,97.23
2022-11-29T02:38:33.618Z,97.23
2022-11-29T02:39:35.796Z,96.98
2022-11-29T02:40:34.186Z,96.88
2022-11-29T02:41:35.418Z,96.67
2022-11-29T02:42:34.806Z,97.08
2022-11-29T02:43:37.034Z,96.67
2022-11-29T02:44:37.218Z,96.77
2022-11-29T02:45:35.721Z,96.88
2022-11-29T02:46:36.038Z,96.92
2022-11-29T02:47:36.340Z,97.07
2022-11-29T02:48:36.650Z,97.39
2022-11-29T02:49:38.843Z,96.92
2022-11-29T02:50:37.242Z,97.02
2022-11-29T02:51:38.512Z,97.02
2022-11-29T02:52:37.887Z,97.19
2022-11-29T02:53:38.191Z,96.67
2022-11-29T02:54:38.495Z,96.82
2022-11-29T02:55:40.686Z,97.29
2022-11-29T02:56:41.832Z,96.77
2022-11-29T02:57:39.356Z,96.92
2022-11-29T02:58:39.671Z,97.44
2022-11-29T02:59:41.839Z,97.08
2022-11-29T03:00:41.022Z,96.98
2022-11-29T03:01:42.464Z,96.67
2022-11-29T03:02:40.870Z,96.98
2022-11-29T03:03:41.137Z,96.56
2022-11-29T03:04:42.567Z,96.72
2022-11-29T03:05:43.626Z,96.98
2022-11-29T03:06:43.811Z,96.82
2022-11-29T03:07:42.371Z,97.13
2022-11-29T03:08:42.667Z,97.23
2022-11-29T03:09:42.975Z,97.13
2022-11-29T03:10:45.171Z,96.88
2022-11-29T03:11:43.556Z,96.92
2022-11-29T03:12:45.736Z,96.82
2022-11-29T03:13:44.119Z,96.47
2022-11-29T03:14:44.601Z,96.82
2022-11-29T03:15:46.184Z,97.02
2022-11-29T03:16:45.040Z,96.98
2022-11-29T03:17:47.230Z,96.30
2022-11-29T03:18:45.620Z,96.72
2022-11-29T03:19:45.975Z,97.23
2022-11-29T03:20:48.121Z,97.02
2022-11-29T03:21:48.319Z,97.02
2022-11-29T03:22:46.831Z,96.98
2022-11-29T03:23:47.130Z,96.67
2022-11-29T03:24:49.324Z,96.15
2022-11-29T03:25:49.509Z,96.47
2022-11-29T03:26:49.715Z,96.66
2022-11-29T03:27:48.336Z,97.17
2022-11-29T03:28:48.647Z,97.44
2022-11-29T03:29:48.951Z,97.02
2022-11-29T03:30:51.178Z,96.88
2022-11-29T03:31:50.072Z,96.56
2022-11-29T03:32:49.820Z,96.61
2022-11-29T03:33:50.131Z,96.61
2022-11-29T03:34:55.686Z,96.88
2022-11-29T03:35:53.629Z,96.51
2022-11-29T03:36:52.829Z,96.82
2022-11-29T03:37:53.009Z,96.88
2022-11-29T03:38:53.203Z,96.36
2022-11-29T03:39:53.862Z,96.72
2022-11-29T03:40:54.050Z,96.61
2022-11-29T03:41:54.227Z,96.82
2022-11-29T03:42:52.864Z,96.72
2022-11-29T03:43:55.010Z,97.02
2022-11-29T03:44:55.184Z,96.82
2022-11-29T03:45:55.352Z,96.82
2022-11-29T03:46:55.520Z,96.72
2022-11-29T03:47:56.232Z,97.08
2022-11-29T03:48:56.416Z,96.36
2022-11-29T03:49:56.599Z,96.56
2022-11-29T03:50:56.791Z,96.36
2022-11-29T03:51:57.489Z,96.41
2022-11-29T03:52:57.672Z,96.56
2022-11-29T03:53:57.863Z,96.26
2022-11-29T03:54:58.068Z,96.26
2022-11-29T03:55:58.762Z,95.74
2022-11-29T03:56:58.933Z,95.89
2022-11-29T03:57:59.123Z,96.51
2022-11-29T03:58:59.929Z,96.61
2022-11-29T04:00:00.014Z,96.45
2022-11-29T04:01:00.260Z,97.02
2022-11-29T04:02:00.386Z,96.30
2022-11-29T04:03:00.713Z,96.61
2022-11-29T04:04:00.805Z,96.30
2022-11-29T04:05:01.493Z,96.15
2022-11-29T04:06:01.688Z,95.84
2022-11-29T04:07:01.880Z,96.15
2022-11-29T04:08:02.205Z,95.32
2022-11-29T04:09:02.768Z,95.99
2022-11-29T04:10:02.955Z,96.47
2022-11-29T04:11:03.142Z,95.53
2022-11-29T04:12:03.343Z,95.27
2022-11-29T04:13:04.024Z,95.94
2022-11-29T04:14:02.417Z,96.45
2022-11-29T04:15:02.731Z,96.51
2022-11-29T04:16:04.989Z,96.51
2022-11-29T04:17:03.339Z,96.51
2022-11-29T04:18:03.649Z,95.99
2022-11-29T04:19:05.824Z,96.36
2022-11-29T04:20:04.203Z,96.05
2022-11-29T04:21:04.536Z,95.84
2022-11-29T04:22:04.837Z,95.43
2022-11-29T04:23:07.027Z,95.22
2022-11-29T04:24:05.416Z,95.32
2022-11-29T04:25:07.592Z,95.64
2022-11-29T04:26:05.973Z,95.17
2022-11-29T04:27:08.162Z,95.64
2022-11-29T04:28:06.544Z,95.43
2022-11-29T04:29:08.734Z,95.43
2022-11-29T04:30:07.114Z,95.78
2022-11-29T04:31:09.378Z,96.09
2022-11-29T04:32:07.728Z,96.20
2022-11-29T04:33:09.915Z,95.99
2022-11-29T04:34:08.295Z,95.78
2022-11-29T04:35:10.490Z,95.89
2022-11-29T04:36:08.867Z,96.09
2022-11-29T04:37:09.212Z,96.09
2022-11-29T04:38:09.515Z,96.30
2022-11-29T04:39:09.833Z,96.47
2022-11-29T04:40:12.011Z,95.57
2022-11-29T04:41:10.398Z,95.99
2022-11-29T04:42:11.514Z,96.03
2022-11-29T04:43:12.901Z,96.24
2022-11-29T04:44:11.272Z,96.30
2022-11-29T04:45:14.917Z,96.24
2022-11-29T04:46:11.876Z,96.55
2022-11-29T04:47:14.092Z,96.66
2022-11-29T04:48:12.331Z,96.45
2022-11-29T04:49:12.638Z,96.61
2022-11-29T04:50:14.839Z,96.03
2022-11-29T04:51:15.013Z,96.30
2022-11-29T04:52:13.631Z,96.09
2022-11-29T04:53:13.782Z,95.83
2022-11-29T04:54:14.094Z,96.14
2022-11-29T04:55:23.812Z,96.41
2022-11-29T04:56:15.707Z,95.99
2022-11-29T04:57:15.919Z,95.89
2022-11-29T04:58:15.276Z,95.99
2022-11-29T04:59:15.591Z,95.57
2022-11-29T05:00:15.897Z,95.99
2022-11-29T05:01:18.133Z,95.57
2022-11-29T05:02:16.501Z,95.94
2022-11-29T05:03:16.807Z,96.09
2022-11-29T05:04:17.122Z,96.20
2022-11-29T05:05:19.318Z,95.53
2022-11-29T05:06:17.694Z,95.37
2022-11-29T05:07:19.913Z,95.73
2022-11-29T05:08:18.302Z,95.94
2022-11-29T05:09:18.619Z,96.14
2022-11-29T05:10:18.921Z,96.09
2022-11-29T05:11:24.976Z,96.09
2022-11-29T05:12:22.404Z,95.68
2022-11-29T05:13:19.806Z,95.83
2022-11-29T05:14:20.104Z,96.14
2022-11-29T05:15:20.414Z,95.99
2022-11-29T05:16:20.796Z,95.68
2022-11-29T05:17:22.890Z,95.83
2022-11-29T05:18:21.278Z,95.89
2022-11-29T05:19:21.581Z,95.68
2022-11-29T05:20:21.886Z,95.62
2022-11-29T05:21:22.195Z,95.89
2022-11-29T05:22:24.384Z,95.89
2022-11-29T05:23:22.766Z,95.17
2022-11-29T05:24:23.066Z,95.57
2022-11-29T05:25:23.379Z,95.57
2022-11-29T05:26:25.545Z,95.21
2022-11-29T05:27:25.730Z,95.62
2022-11-29T05:28:25.926Z,96.03
2022-11-29T05:29:26.089Z,96.03
2022-11-29T05:30:26.793Z,95.94
2022-11-29T05:31:25.213Z,95.73
2022-11-29T05:32:27.361Z,95.98
2022-11-29T05:33:27.537Z,96.24
2022-11-29T05:34:33.281Z,96.34
2022-11-29T05:35:27.276Z,95.83
2022-11-29T05:36:28.478Z,95.83
2022-11-29T05:37:28.640Z,95.62
2022-11-29T05:38:28.799Z,95.83
2022-11-29T05:39:28.980Z,95.52
2022-11-29T05:40:29.681Z,95.52
2022-11-29T05:41:29.872Z,95.73
2022-11-29T05:42:30.069Z,95.57
2022-11-29T05:43:30.258Z,95.48
2022-11-29T05:44:30.985Z,95.06
2022-11-29T05:45:29.261Z,95.17
2022-11-29T05:46:29.605Z,94.85
2022-11-29T05:47:31.807Z,95.00
2022-11-29T05:48:30.142Z,95.10
2022-11-29T05:49:32.462Z,95.48
2022-11-29T05:50:31.675Z,95.00
2022-11-29T05:51:31.041Z,95.37
2022-11-29T05:52:31.341Z,94.85
2022-11-29T05:53:31.655Z,94.96
2022-11-29T05:54:31.982Z,95.17
2022-11-29T05:55:34.156Z,94.65
2022-11-29T05:56:32.541Z,95.00
2022-11-29T05:57:32.853Z,95.00
2022-11-29T05:58:35.034Z,95.10
2022-11-29T05:59:35.221Z,95.06
2022-11-29T06:00:35.402Z,94.75
2022-11-29T06:01:35.644Z,94.85
2022-11-29T06:02:36.319Z,94.29
2022-11-29T06:03:36.457Z,94.60
2022-11-29T06:04:36.664Z,93.98
2022-11-29T06:05:36.849Z,94.29
2022-11-29T06:06:37.059Z,94.19
2022-11-29T06:07:37.768Z,94.23
2022-11-29T06:08:37.949Z,94.59
2022-11-29T06:09:38.285Z,95.27
2022-11-29T06:10:38.499Z,94.44
2022-11-29T06:11:38.663Z,94.59
2022-11-29T06:12:39.360Z,94.85
2022-11-29T06:13:39.539Z,94.34
2022-11-29T06:14:38.049Z,94.38
2022-11-29T06:15:40.231Z,95.06
2022-11-29T06:16:38.687Z,94.34
2022-11-29T06:17:40.847Z,94.03
2022-11-29T06:18:39.109Z,94.48
2022-11-29T06:19:41.296Z,94.48
2022-11-29T06:20:41.482Z,94.44
2022-11-29T06:21:39.989Z,94.38
2022-11-29T06:22:42.153Z,94.90
2022-11-29T06:23:40.529Z,94.54
2022-11-29T06:24:42.973Z,94.07
2022-11-29T06:25:42.893Z,94.69
2022-11-29T06:26:41.417Z,94.18
2022-11-29T06:27:41.696Z,94.38
2022-11-29T06:28:42.010Z,94.48
2022-11-29T06:29:44.165Z,94.59
2022-11-29T06:30:44.359Z,94.07
2022-11-29T06:31:42.933Z,94.38
2022-11-29T06:32:43.210Z,94.18
2022-11-29T06:33:43.517Z,94.22
2022-11-29T06:34:44.105Z,94.69
2022-11-29T06:35:46.015Z,94.23
2022-11-29T06:36:47.647Z,94.03
2022-11-29T06:37:44.674Z,94.13
2022-11-29T06:38:45.626Z,93.55
2022-11-29T06:39:45.231Z,93.76
2022-11-29T06:40:47.422Z,94.38
2022-11-29T06:41:46.755Z,94.44
2022-11-29T06:42:47.985Z,94.03
2022-11-29T06:43:46.368Z,93.51
2022-11-29T06:44:47.037Z,93.72
2022-11-29T06:45:48.849Z,93.93
2022-11-29T06:46:47.293Z,93.87
2022-11-29T06:47:47.568Z,94.38
2022-11-29T06:48:49.675Z,94.28
2022-11-29T06:49:48.987Z,94.18
2022-11-29T06:50:49.317Z,94.38
2022-11-29T06:51:49.634Z,94.54
2022-11-29T06:52:49.097Z,93.72
2022-11-29T06:53:49.286Z,93.78
2022-11-29T06:54:49.627Z,93.20
2022-11-29T06:55:49.937Z,93.72
2022-11-29T06:56:50.259Z,93.76
2022-11-29T06:57:50.586Z,94.28
2022-11-29T06:58:52.769Z,94.65
2022-11-29T06:59:52.946Z,94.13
2022-11-29T07:00:51.512Z,94.44
2022-11-29T07:01:53.739Z,93.57
2022-11-29T07:02:51.975Z,93.68
2022-11-29T07:03:52.306Z,93.57
2022-11-29T07:04:52.863Z,93.47
2022-11-29T07:05:52.967Z,93.20
2022-11-29T07:06:55.157Z,93.57
2022-11-29T07:07:53.585Z,93.37
2022-11-29T07:08:53.896Z,93.20
2022-11-29T07:09:56.057Z,93.82
2022-11-29T07:10:54.464Z,93.68
2022-11-29T07:11:55.777Z,93.47
2022-11-29T07:12:55.028Z,93.05
2022-11-29T07:13:57.183Z,93.26
2022-11-29T07:14:57.367Z,93.37
2022-11-29T07:15:57.611Z,93.41
2022-11-29T07:16:57.825Z,93.82
2022-11-29T07:17:58.434Z,93.68
2022-11-29T07:18:58.598Z,93.57
2022-11-29T07:19:58.761Z,93.16
2022-11-29T07:20:58.935Z,93.68
2022-11-29T07:21:58.962Z,92.91
2022-11-29T07:22:59.828Z,92.74
2022-11-29T07:23:58.225Z,92.64
2022-11-29T07:25:00.414Z,93.16
2022-11-29T07:25:58.831Z,93.30
2022-11-29T07:26:59.805Z,93.57
2022-11-29T07:27:59.509Z,93.05
2022-11-29T07:28:59.857Z,92.95
2022-11-29T07:30:02.040Z,93.16
2022-11-29T07:31:00.580Z,93.62
2022-11-29T07:32:00.746Z,93.41
2022-11-29T07:33:01.087Z,93.72
2022-11-29T07:34:03.242Z,93.57
2022-11-29T07:35:03.423Z,93.16
2022-11-29T07:36:03.608Z,93.05
2022-11-29T07:37:03.808Z,92.95
2022-11-29T07:38:04.497Z,93.10
2022-11-29T07:39:03.667Z,93.26
2022-11-29T07:40:04.891Z,93.62
2022-11-29T07:41:05.051Z,93.78
2022-11-29T07:42:05.696Z,93.26
2022-11-29T07:43:05.931Z,93.37
2022-11-29T07:44:06.087Z,93.20
2022-11-29T07:45:06.278Z,93.72
2022-11-29T07:46:06.971Z,94.13
2022-11-29T07:47:07.210Z,93.57
2022-11-29T07:48:07.546Z,93.51
2022-11-29T07:49:07.623Z,93.47
2022-11-29T07:50:09.730Z,93.51
2022-11-29T07:51:08.474Z,93.41
2022-11-29T07:52:06.879Z,93.93
2022-11-29T07:53:07.214Z,93.72
2022-11-29T07:54:07.550Z,93.88
2022-11-29T07:55:12.227Z,93.10
2022-11-29T07:56:08.203Z,93.93
2022-11-29T07:57:08.538Z,93.68
2022-11-29T07:58:10.735Z,93.26
2022-11-29T07:59:09.170Z,93.41
2022-11-29T08:00:09.488Z,93.62
2022-11-29T08:01:09.845Z,93.62
2022-11-29T08:02:11.841Z,93.93
2022-11-29T08:03:12.382Z,94.23
2022-11-29T08:04:10.663Z,94.09
2022-11-29T08:05:11.122Z,93.47
2022-11-29T08:06:14.201Z,93.37
2022-11-29T08:07:13.634Z,93.57
2022-11-29T08:08:11.929Z,93.68
2022-11-29T08:09:14.153Z,93.82
2022-11-29T08:10:12.438Z,93.93
2022-11-29T08:11:17.052Z,94.03
2022-11-29T08:12:13.129Z,94.13
2022-11-29T08:13:13.372Z,94.29
2022-11-29T08:14:13.593Z,93.88
2022-11-29T08:15:13.821Z,93.78
2022-11-29T08:16:14.090Z,93.43
2022-11-29T08:17:16.242Z,93.12
2022-11-29T08:18:17.383Z,93.16
2022-11-29T08:19:14.824Z,93.78
2022-11-29T08:20:17.957Z,93.78
2022-11-29T08:21:17.734Z,93.72
2022-11-29T08:22:15.527Z,94.09
2022-11-29T08:23:15.881Z,93.57
2022-11-29T08:24:16.121Z,93.57
2022-11-29T08:25:18.320Z,93.26
2022-11-29T08:26:16.609Z,93.78
2022-11-29T08:27:18.803Z,93.51
2022-11-29T08:28:17.251Z,93.93
2022-11-29T08:29:17.480Z,93.93
2022-11-29T08:30:17.698Z,94.03
2022-11-29T08:31:17.989Z,93.82
2022-11-29T08:32:20.109Z,94.09
2022-11-29T08:33:18.408Z,93.57
2022-11-29T08:34:18.647Z,93.82
2022-11-29T08:35:18.865Z,93.57
2022-11-29T08:36:19.091Z,93.68
2022-11-29T08:37:21.289Z,93.05
2022-11-29T08:38:20.256Z,93.47
2022-11-29T08:39:20.996Z,93.37
2022-11-29T08:40:20.275Z,93.26
2022-11-29T08:41:22.461Z,93.05
2022-11-29T08:42:22.649Z,93.51
2022-11-29T08:43:21.924Z,93.78
2022-11-29T08:44:21.321Z,93.43
2022-11-29T08:45:21.551Z,92.85
2022-11-29T08:46:23.751Z,92.85
2022-11-29T08:47:25.383Z,93.05
2022-11-29T08:48:22.314Z,93.26
2022-11-29T08:49:24.504Z,93.47
2022-11-29T08:50:22.805Z,93.05
2022-11-29T08:51:24.041Z,92.95
2022-11-29T08:52:25.226Z,92.70
2022-11-29T08:53:23.653Z,92.70
2022-11-29T08:54:23.903Z,92.50
2022-11-29T08:55:26.094Z,92.13
2022-11-29T08:57:10.121Z,92.89
2022-11-29T08:57:39.869Z,92.85
2022-11-29T08:58:25.950Z,92.64
2022-11-29T08:59:25.235Z,93.16
2022-11-29T09:00:27.444Z,92.68
2022-11-29T09:01:25.790Z,93.05
2022-11-29T09:02:25.995Z,92.33
2022-11-29T09:03:28.187Z,92.58
2022-11-29T09:04:26.477Z,93.05
2022-11-29T09:05:28.657Z,92.54
2022-11-29T09:06:27.077Z,92.40
2022-11-29T09:07:27.491Z,91.92
2022-11-29T09:08:29.613Z,92.48
2022-11-29T09:09:28.026Z,92.79
2022-11-29T09:10:30.096Z,93.10
2022-11-29T09:11:29.525Z,92.68
2022-11-29T09:12:30.798Z,92.79
2022-11-29T09:13:29.039Z,92.85
2022-11-29T09:14:31.252Z,92.79
2022-11-29T09:15:31.458Z,92.79
2022-11-29T09:16:29.909Z,92.95
2022-11-29T09:17:32.250Z,92.74
2022-11-29T09:18:30.546Z,92.44
2022-11-29T09:19:31.735Z,92.54
2022-11-29T09:20:32.915Z,92.91
2022-11-29T09:21:32.384Z,92.23
2022-11-29T09:22:31.667Z,92.44
2022-11-29T09:23:31.897Z,92.23
2022-11-29T09:24:32.145Z,92.44
2022-11-29T09:25:34.341Z,92.74
2022-11-29T09:26:34.539Z,92.79
2022-11-29T09:27:34.744Z,93.16
2022-11-29T09:28:34.935Z,92.85
2022-11-29T09:29:35.636Z,92.44
2022-11-29T09:30:34.184Z,92.79
2022-11-29T09:31:36.281Z,93.30
2022-11-29T09:32:36.452Z,92.95
2022-11-29T09:33:36.643Z,92.85
2022-11-29T09:34:37.323Z,92.74
2022-11-29T09:35:37.514Z,92.95
2022-11-29T09:36:37.688Z,92.60
2022-11-29T09:37:37.879Z,91.98
2022-11-29T09:38:38.067Z,92.29
2022-11-29T09:39:38.761Z,92.14
2022-11-29T09:40:39.130Z,91.94
2022-11-29T09:41:41.111Z,91.42
2022-11-29T09:42:38.664Z,91.88
2022-11-29T09:43:39.859Z,91.98
2022-11-29T09:44:40.042Z,92.08
2022-11-29T09:45:40.233Z,91.63
2022-11-29T09:46:40.380Z,91.92
2022-11-29T09:47:41.066Z,92.29
2022-11-29T09:48:41.265Z,92.19
2022-11-29T09:49:41.445Z,91.83
2022-11-29T09:50:41.648Z,91.88
2022-11-29T09:51:44.347Z,92.08
2022-11-29T09:52:42.527Z,92.08
2022-11-29T09:53:42.706Z,91.88
2022-11-29T09:54:43.193Z,91.88
2022-11-29T09:55:43.587Z,91.98
2022-11-29T09:56:43.779Z,92.13
2022-11-29T09:57:45.409Z,92.44
2022-11-29T09:58:44.169Z,92.33
2022-11-29T09:59:44.340Z,92.29
2022-11-29T10:00:45.020Z,92.19
2022-11-29T10:01:45.191Z,92.23
2022-11-29T10:02:45.467Z,92.60
2022-11-29T10:03:44.014Z,92.29
2022-11-29T10:04:46.421Z,92.19
2022-11-29T10:05:46.371Z,91.77
2022-11-29T10:06:46.559Z,92.25
2022-11-29T10:07:46.751Z,91.32
2022-11-29T10:08:45.520Z,91.88
2022-11-29T10:09:45.822Z,91.56
2022-11-29T10:10:48.027Z,91.77
2022-11-29T10:11:48.209Z,92.19
2022-11-29T10:12:46.635Z,92.08
2022-11-29T10:13:46.876Z,91.94
2022-11-29T10:14:47.443Z,91.88
2022-11-29T10:15:47.373Z,91.88
2022-11-29T10:16:49.565Z,91.73
2022-11-29T10:17:49.693Z,91.63
2022-11-29T10:18:48.120Z,91.16
2022-11-29T10:19:50.369Z,91.98
2022-11-29T10:20:49.373Z,91.52
2022-11-29T10:21:50.821Z,91.42
2022-11-29T10:22:51.100Z,91.73
2022-11-29T10:23:49.519Z,91.16
2022-11-29T10:24:50.296Z,91.42
2022-11-29T10:25:50.200Z,91.11
2022-11-29T10:26:52.383Z,90.86
2022-11-29T10:27:50.790Z,90.76
2022-11-29T10:28:51.020Z,90.59
2022-11-29T10:29:51.247Z,91.63
2022-11-29T10:30:51.619Z,91.38
2022-11-29T10:31:53.775Z,90.91
2022-11-29T10:32:52.925Z,90.80
2022-11-29T10:33:54.282Z,90.91
2022-11-29T10:34:53.498Z,91.38
2022-11-29T10:35:52.911Z,90.80
2022-11-29T10:36:53.261Z,91.11
2022-11-29T10:38:22.763Z,91.28
2022-11-29T10:38:56.671Z,91.11
2022-11-29T10:39:54.109Z,91.63
2022-11-29T10:40:54.464Z,91.32
2022-11-29T10:41:54.681Z,91.32
2022-11-29T10:42:56.858Z,91.22
2022-11-29T10:43:57.041Z,91.36
2022-11-29T10:44:55.593Z,92.19
2022-11-29T10:45:55.865Z,91.94
2022-11-29T10:46:56.971Z,92.04
2022-11-29T10:47:58.349Z,91.17
2022-11-29T10:48:58.545Z,90.91
2022-11-29T10:49:57.091Z,91.42
2022-11-29T10:50:57.443Z,91.63
2022-11-29T10:51:59.616Z,91.73
2022-11-29T10:53:00.230Z,91.67
2022-11-29T10:53:58.210Z,91.73
2022-11-29T10:54:58.561Z,91.63
2022-11-29T10:55:58.788Z,91.69
2022-11-29T10:56:59.973Z,90.76
2022-11-29T10:57:59.255Z,90.80
2022-11-29T10:59:00.422Z,91.36
2022-11-29T11:00:01.623Z,91.94
2022-11-29T11:01:00.229Z,91.73
2022-11-29T11:02:02.351Z,91.17
2022-11-29T11:03:00.775Z,91.07
2022-11-29T11:04:01.190Z,91.01
2022-11-29T11:05:01.420Z,91.42
2022-11-29T11:06:01.640Z,91.73
2022-11-29T11:07:03.839Z,91.69
2022-11-29T11:08:02.319Z,90.55
2022-11-29T11:09:02.506Z,91.07
2022-11-29T11:10:02.732Z,90.66
2022-11-29T11:11:02.964Z,91.24
2022-11-29T11:12:05.148Z,90.41
2022-11-29T11:13:03.446Z,90.16
2022-11-29T11:14:03.668Z,89.07
2022-11-29T11:15:03.900Z,89.58
2022-11-29T11:16:04.136Z,89.54
2022-11-29T11:17:06.336Z,89.13
2022-11-29T11:18:04.615Z,89.69
2022-11-29T11:19:06.827Z,90.25
2022-11-29T11:20:07.011Z,90.31
2022-11-29T11:21:07.177Z,90.25
2022-11-29T11:22:06.028Z,90.76
2022-11-29T11:23:07.689Z,90.76
2022-11-29T11:24:07.867Z,90.55
2022-11-29T11:25:08.562Z,91.28
2022-11-29T11:26:08.776Z,90.82
2022-11-29T11:27:08.966Z,90.25
2022-11-29T11:28:09.141Z,90.97
2022-11-29T11:29:09.853Z,90.86
2022-11-29T11:30:10.033Z,90.97
2022-11-29T11:31:10.269Z,91.07
2022-11-29T11:32:08.921Z,91.07
2022-11-29T11:33:11.104Z,90.97
2022-11-29T11:34:09.398Z,91.17
2022-11-29T11:35:13.108Z,90.97
2022-11-29T11:36:10.992Z,90.92
2022-11-29T11:37:10.266Z,90.99
2022-11-29T11:38:12.434Z,90.16
2022-11-29T11:39:10.742Z,90.47
2022-11-29T11:40:12.947Z,89.95
2022-11-29T11:41:11.218Z,90.22
2022-11-29T11:42:11.442Z,89.13
2022-11-29T11:43:11.786Z,89.58
2022-11-29T11:44:15.336Z,89.89
2022-11-29T11:45:15.314Z,89.65
2022-11-29T11:46:17.676Z,89.65
2022-11-29T11:47:14.100Z,90.10
2022-11-29T11:48:13.377Z,89.73
2022-11-29T11:49:13.740Z,90.57
2022-11-29T11:50:15.921Z,89.75
2022-11-29T11:51:16.115Z,88.92
2022-11-29T11:52:16.299Z,89.34
2022-11-29T11:53:16.486Z,89.54
2022-11-29T11:54:16.684Z,89.85
2022-11-29T11:55:17.419Z,89.44
2022-11-29T11:56:17.643Z,89.23
2022-11-29T11:57:17.805Z,89.44
2022-11-29T11:58:17.996Z,90.06
2022-11-29T11:59:18.197Z,88.99
2022-11-29T12:00:34.497Z,89.44
2022-11-29T12:01:18.248Z,89.75
2022-11-29T12:02:19.466Z,90.01
2022-11-29T12:03:19.688Z,89.61
2022-11-29T12:04:19.801Z,89.03
2022-11-29T12:05:20.011Z,90.01
2022-11-29T12:06:20.205Z,89.50
2022-11-29T12:07:33.785Z,89.29
2022-11-29T12:08:20.404Z,89.81
2022-11-29T12:09:21.537Z,89.75
2022-11-29T12:10:21.721Z,90.06
2022-11-29T12:11:21.919Z,90.20
2022-11-29T12:12:22.121Z,90.31
2022-11-29T12:13:22.825Z,90.31
2022-11-29T12:14:21.253Z,90.20
2022-11-29T12:15:23.433Z,90.47
2022-11-29T12:16:21.766Z,90.06
2022-11-29T12:17:21.981Z,89.85
2022-11-29T12:18:22.199Z,90.10
2022-11-29T12:19:22.568Z,90.67
2022-11-29T12:20:22.869Z,90.22
2022-11-29T12:21:25.087Z,90.08
2022-11-29T12:22:23.437Z,89.09
2022-11-29T12:23:23.731Z,89.05
2022-11-29T12:24:25.895Z,88.92
2022-11-29T12:25:24.201Z,89.48
2022-11-29T12:26:55.834Z,90.25
2022-11-29T12:27:25.690Z,90.45
2022-11-29T12:28:24.971Z,90.92
2022-11-29T12:29:25.317Z,90.47
2022-11-29T12:30:27.520Z,90.06
2022-11-29T12:31:25.948Z,89.95
2022-11-29T12:32:26.277Z,89.65
2022-11-29T12:33:26.621Z,89.81
2022-11-29T12:34:26.847Z,89.29
2022-11-29T12:35:29.044Z,88.92
2022-11-29T12:36:27.332Z,89.13
2022-11-29T12:37:27.777Z,89.95
2022-11-29T12:38:27.952Z,89.54
2022-11-29T12:39:28.302Z,89.44
2022-11-29T12:40:30.470Z,89.03
2022-11-29T12:41:30.653Z,89.75
2022-11-29T12:42:29.070Z,89.44
2022-11-29T12:43:30.105Z,88.78
2022-11-29T12:44:30.521Z,88.68
2022-11-29T12:45:29.936Z,88.53
2022-11-29T12:46:30.213Z,88.12
2022-11-29T12:47:36.501Z,88.33
2022-11-29T12:48:30.720Z,88.12
2022-11-29T12:49:31.082Z,87.87
2022-11-29T12:50:31.485Z,87.05
2022-11-29T12:51:31.548Z,87.44
2022-11-29T12:52:33.723Z,88.51
2022-11-29T12:53:32.021Z,89.54
2022-11-29T12:54:32.252Z,88.78
2022-11-29T12:55:34.429Z,88.78
2022-11-29T12:56:32.862Z,88.78